Time;durP1;ratioP1;P1;durP2;ratioP2;P2;SDS_P1;SDS_P2;PMS_P1;PMS_P2;Temp;Humidity;BMP_temperature;BMP_pressure;BME280_temperature;BME280_humidity;BME280_pressure;Samples;Min_cycle;Max_cycle;Signal;HPM_P1;HPM_P2
2021/10/30 00:00:23;;;;;;;8.05;4.05;;;;;;;15.55;54.87;98971.66;4955023;29;20442;-81
2021/10/30 00:02:50;;;;;;;4.53;3.53;;;;;;;15.57;54.89;98964.41;4954114;29;20150;-81
2021/10/30 00:05:17;;;;;;;7.75;4.32;;;;;;;15.58;54.80;98974.03;4953949;28;20051;-80
2021/10/30 00:07:43;;;;;;;6.00;4.28;;;;;;;15.59;54.81;98975.72;4953982;29;20134;-81
2021/10/30 00:10:12;;;;;;;5.88;4.30;;;;;;;15.58;54.70;98976.69;4953414;29;20150;-81
2021/10/30 00:12:39;;;;;;;5.25;4.10;;;;;;;15.57;54.68;98975.03;4953536;28;20051;-80
2021/10/30 00:15:06;;;;;;;8.10;4.00;;;;;;;15.55;54.68;98982.25;4953548;28;20062;-81
2021/10/30 00:17:33;;;;;;;5.38;4.13;;;;;;;15.55;54.71;98978.78;4953801;29;20124;-81
2021/10/30 00:20:00;;;;;;;4.93;4.30;;;;;;;15.53;54.67;98978.09;4953547;28;20500;-81
2021/10/30 00:22:29;;;;;;;6.82;4.40;;;;;;;15.51;54.57;98983.53;4953312;28;20058;-80
2021/10/30 00:24:56;;;;;;;5.57;4.00;;;;;;;15.49;54.55;98978.38;4953648;28;20142;-81
2021/10/30 00:27:23;;;;;;;5.10;4.20;;;;;;;15.47;54.66;98979.47;4954048;28;20436;-80
2021/10/30 00:29:51;;;;;;;7.03;4.43;;;;;;;15.44;54.54;98975.28;4953518;29;20138;-80
2021/10/30 00:32:17;;;;;;;5.78;4.15;;;;;;;15.43;54.52;98972.75;4953196;28;20051;-80
2021/10/30 00:34:44;;;;;;;5.40;4.13;;;;;;;15.41;54.62;98974.72;4953488;28;20408;-81
2021/10/30 00:37:11;;;;;;;5.53;4.15;;;;;;;15.37;54.60;98972.34;4953550;28;20059;-80
2021/10/30 00:39:39;;;;;;;4.93;3.78;;;;;;;15.36;54.55;98967.19;4953287;29;20073;-81
2021/10/30 00:42:18;;;;;;;4.63;3.70;;;;;;;15.30;54.83;98975.69;4953132;29;20051;-80
2021/10/30 00:44:44;;;;;;;5.70;3.95;;;;;;;15.32;54.49;98957.81;4953401;29;20403;-80
2021/10/30 00:47:13;;;;;;;6.47;4.82;;;;;;;15.30;54.50;98968.59;4953007;29;20077;-80
2021/10/30 00:49:44;;;;;;;5.72;3.75;;;;;;;15.25;54.70;98962.84;4953227;29;20514;-80
2021/10/30 00:52:13;;;;;;;5.05;4.13;;;;;;;15.24;54.54;98961.16;4953213;29;20059;-80
2021/10/30 00:54:43;;;;;;;5.75;4.30;;;;;;;15.22;54.51;98961.31;4952998;28;20147;-80
2021/10/30 00:57:11;;;;;;;5.25;4.10;;;;;;;15.20;54.53;98960.63;4953053;28;20407;-81
2021/10/30 00:59:38;;;;;;;5.65;4.15;;;;;;;15.19;54.66;98955.44;4953109;28;20073;-80
2021/10/30 01:02:05;;;;;;;5.90;4.03;;;;;;;15.18;54.62;98961.72;4953587;28;20060;-81
2021/10/30 01:04:32;;;;;;;6.53;4.47;;;;;;;15.16;54.79;98963.66;4952907;28;20059;-81
2021/10/30 01:07:00;;;;;;;5.78;4.25;;;;;;;15.15;54.83;98960.19;4952891;29;20134;-80
2021/10/30 01:09:27;;;;;;;7.40;3.63;;;;;;;15.15;54.82;98962.84;4952923;29;20055;-80
2021/10/30 01:11:54;;;;;;;7.10;3.67;;;;;;;15.16;54.74;98953.91;4952797;29;20047;-81
2021/10/30 01:14:21;;;;;;;5.93;3.97;;;;;;;15.16;54.84;98959.22;4953364;29;20464;-81
2021/10/30 01:17:04;;;;;;;4.95;3.55;;;;;;;15.13;55.02;98956.81;4952545;29;20051;-80
2021/10/30 01:19:32;;;;;;;5.60;3.67;;;;;;;15.18;54.80;98957.25;4952808;28;20059;-81
2021/10/30 01:22:02;;;;;;;6.10;3.58;;;;;;;15.19;54.80;98955.44;4952504;28;20047;-81
2021/10/30 01:24:29;;;;;;;7.05;3.50;;;;;;;15.20;54.85;98955.31;4952546;29;20059;-81
2021/10/30 01:26:56;;;;;;;6.93;3.78;;;;;;;15.20;54.94;98963.25;4953424;29;20142;-81
2021/10/30 01:29:32;;;;;;;6.82;3.42;;;;;;;15.17;55.54;98958.22;4952583;28;20493;-81
2021/10/30 01:31:59;;;;;;;5.20;3.60;;;;;;;15.22;55.17;98955.19;4952730;28;20055;-80
2021/10/30 01:34:27;;;;;;;6.32;3.72;;;;;;;15.22;55.32;98940.09;4953575;28;20051;-81
2021/10/30 01:36:57;;;;;;;4.55;3.35;;;;;;;15.23;55.36;98936.50;4952543;28;20059;-80
2021/10/30 01:39:25;;;;;;;4.25;3.35;;;;;;;15.24;55.15;98932.84;4952504;28;20055;-80
2021/10/30 01:41:52;;;;;;;7.25;3.65;;;;;;;15.25;55.04;98933.66;4952531;29;20444;-81
2021/10/30 01:44:27;;;;;;;7.47;3.90;;;;;;;15.22;55.23;98934.78;4952534;29;20062;-80
2021/10/30 01:46:59;;;;;;;3.70;3.22;;;;;;;15.23;55.17;98933.84;4952309;28;20893;-81
2021/10/30 01:49:28;;;;;;;7.03;3.92;;;;;;;15.24;55.02;98932.00;4952359;28;20142;-81
2021/10/30 01:51:56;;;;;;;6.85;3.75;;;;;;;15.23;55.06;98927.69;4952026;29;20138;-81
2021/10/30 01:54:23;;;;;;;4.60;3.58;;;;;;;15.22;55.02;98916.22;4952385;28;20062;-81
2021/10/30 01:56:50;;;;;;;4.60;3.45;;;;;;;15.21;55.01;98921.66;4952352;28;20616;-80
2021/10/30 01:59:20;;;;;;;5.38;3.55;;;;;;;15.20;55.29;98934.09;4952199;29;20059;-81
2021/10/30 02:01:47;;;;;;;4.45;3.53;;;;;;;15.21;55.01;98927.81;4953451;29;20535;-80
2021/10/30 02:04:14;;;;;;;5.65;3.70;;;;;;;15.21;55.16;98914.56;4952269;29;20137;-81
2021/10/30 02:06:42;;;;;;;4.72;3.60;;;;;;;15.22;55.00;98916.22;4951867;29;20078;-80
2021/10/30 02:09:09;;;;;;;4.93;3.30;;;;;;;15.22;55.04;98916.22;4951761;28;20440;-80
2021/10/30 02:11:36;;;;;;;6.22;4.00;;;;;;;15.24;54.87;98913.44;4951215;28;20061;-81
2021/10/30 02:14:05;;;;;;;5.70;3.83;;;;;;;15.22;55.05;98900.31;4952099;28;20057;-81
2021/10/30 02:16:34;;;;;;;4.75;3.38;;;;;;;15.23;54.78;98898.53;4951614;29;20095;-81
2021/10/30 02:19:01;;;;;;;5.28;4.05;;;;;;;15.21;54.70;98890.72;4952079;28;20074;-81
2021/10/30 02:21:28;;;;;;;5.50;3.63;;;;;;;15.20;54.63;98883.75;4951774;29;20055;-81
2021/10/30 02:23:56;;;;;;;4.97;3.90;;;;;;;15.18;54.57;98879.56;4951551;29;20058;-81
2021/10/30 02:26:22;;;;;;;6.97;3.75;;;;;;;15.16;54.61;98884.13;4951885;28;20055;-81
2021/10/30 02:28:55;;;;;;;4.90;3.63;;;;;;;15.08;54.75;98893.66;4951838;28;20153;-81
2021/10/30 02:31:22;;;;;;;7.13;4.05;;;;;;;15.09;54.62;98884.72;4951622;29;20059;-81
2021/10/30 02:33:49;;;;;;;5.20;3.72;;;;;;;15.07;54.53;98885.81;4951770;29;20381;-81
2021/10/30 02:36:20;;;;;;;6.05;3.92;;;;;;;15.01;54.82;98891.66;4951658;28;20055;-81
2021/10/30 02:38:47;;;;;;;6.10;4.10;;;;;;;14.98;54.71;98882.19;4951308;29;20051;-81
2021/10/30 02:41:14;;;;;;;6.22;3.80;;;;;;;14.96;54.74;98889.44;4951804;28;20051;-81
2021/10/30 02:43:43;;;;;;;9.27;4.05;;;;;;;14.90;54.91;98874.91;4951760;29;20548;-81
2021/10/30 02:46:11;;;;;;;7.53;4.15;;;;;;;14.89;54.71;98878.56;4951360;29;20065;-81
2021/10/30 02:48:37;;;;;;;7.38;4.43;;;;;;;14.86;54.86;98873.53;4951247;28;20494;-81
2021/10/30 02:51:16;;;;;;;4.32;3.53;;;;;;;14.79;55.15;98865.28;4951639;28;20058;-81
2021/10/30 02:53:42;;;;;;;7.72;4.15;;;;;;;14.80;54.88;98864.31;4952716;28;20468;-81
2021/10/30 02:56:09;;;;;;;4.30;3.90;;;;;;;14.78;54.96;98860.13;4952942;29;20138;-81
2021/10/30 02:58:38;;;;;;;5.72;4.03;;;;;;;14.73;54.96;98857.88;4951070;29;20059;-81
2021/10/30 03:01:05;;;;;;;9.25;4.35;;;;;;;14.73;55.03;98849.91;4951220;29;20055;-80
2021/10/30 03:03:32;;;;;;;4.93;3.90;;;;;;;14.70;54.85;98851.00;4951139;28;20098;-81
2021/10/30 03:06:02;;;;;;;8.07;3.97;;;;;;;14.69;55.45;98854.63;4951412;29;20793;-81
2021/10/30 03:08:28;;;;;;;5.68;4.30;;;;;;;14.70;55.04;98853.66;4951276;28;20057;-81
2021/10/30 03:10:55;;;;;;;7.57;3.88;;;;;;;14.69;55.04;98845.88;4951453;29;20567;-81
2021/10/30 03:13:28;;;;;;;5.38;4.00;;;;;;;14.67;55.26;98845.16;4952013;28;20396;-81
2021/10/30 03:15:55;;;;;;;4.43;3.80;;;;;;;14.70;55.10;98842.25;4951098;28;20047;-81
2021/10/30 03:18:22;;;;;;;5.68;4.00;;;;;;;14.70;55.23;98839.59;4950925;28;20055;-81
2021/10/30 03:20:49;;;;;;;5.15;3.90;;;;;;;14.70;55.06;98829.00;4951021;28;20055;-81
2021/10/30 03:23:16;;;;;;;8.35;4.57;;;;;;;14.70;55.21;98831.63;4951374;29;20582;-81
2021/10/30 03:25:42;;;;;;;8.43;4.55;;;;;;;14.70;55.09;98829.00;4950845;28;20051;-81
2021/10/30 03:28:10;;;;;;;4.70;4.10;;;;;;;14.70;54.97;98829.00;4951145;29;20059;-81
2021/10/30 03:30:37;;;;;;;7.55;4.38;;;;;;;14.69;55.04;98822.84;4954044;29;20065;-81
2021/10/30 03:33:03;;;;;;;4.43;3.47;;;;;;;14.69;55.19;98825.50;4954403;28;20523;-81
2021/10/30 03:35:36;;;;;;;5.22;4.10;;;;;;;14.66;55.23;98825.75;4955445;28;20138;-81
2021/10/30 03:38:03;;;;;;;4.07;3.67;;;;;;;14.68;55.15;98821.19;4954079;28;20051;-81
2021/10/30 03:40:30;;;;;;;6.47;3.80;;;;;;;14.68;54.99;98823.81;4954313;28;20494;-81
2021/10/30 03:42:59;;;;;;;4.93;4.10;;;;;;;14.66;55.15;98819.66;4954112;28;20051;-81
2021/10/30 03:45:26;;;;;;;6.28;4.50;;;;;;;14.66;55.06;98820.47;4954348;29;20077;-80
2021/10/30 03:47:54;;;;;;;6.55;4.07;;;;;;;14.66;54.97;98824.94;4954145;28;20059;-80
2021/10/30 03:50:21;;;;;;;5.13;3.58;;;;;;;14.66;55.02;98809.06;4953726;29;20146;-80
2021/10/30 03:52:48;;;;;;;4.65;3.95;;;;;;;14.67;55.18;98800.13;4954295;28;20051;-81
2021/10/30 03:55:17;;;;;;;4.82;3.75;;;;;;;14.66;55.16;98809.88;4954940;28;20051;-81
2021/10/30 03:57:43;;;;;;;6.65;3.85;;;;;;;14.66;55.04;98801.91;4953810;29;20055;-81
2021/10/30 04:00:11;;;;;;;5.60;3.60;;;;;;;14.67;54.97;98800.97;4954334;28;20377;-81
2021/10/30 04:02:43;;;;;;;6.10;3.38;;;;;;;14.65;55.22;98810.84;4953726;29;20054;-81
2021/10/30 04:05:11;;;;;;;8.70;3.72;;;;;;;14.67;55.11;98800.97;4953684;29;20047;-81
2021/10/30 04:07:37;;;;;;;4.72;3.40;;;;;;;14.68;55.06;98791.19;4953635;28;20051;-81
2021/10/30 04:10:05;;;;;;;4.13;3.45;;;;;;;14.68;55.09;98789.41;4953448;28;20051;-81
2021/10/30 04:12:31;;;;;;;4.90;3.67;;;;;;;14.67;55.02;98790.38;4954106;29;20058;-80
2021/10/30 04:15:00;;;;;;;4.10;3.22;;;;;;;14.65;55.18;98794.97;4953592;29;20055;-81
2021/10/30 04:17:27;;;;;;;4.53;3.42;;;;;;;14.66;55.04;98788.69;4953505;29;20055;-81
2021/10/30 04:19:54;;;;;;;7.90;3.58;;;;;;;14.64;54.95;98801.25;4953334;29;20055;-81
2021/10/30 04:22:31;;;;;;;3.70;3.03;;;;;;;14.61;55.30;98804.16;4953818;29;20496;-81
2021/10/30 04:25:05;;;;;;;5.72;3.83;;;;;;;14.62;55.11;98797.06;4953351;29;20058;-81
2021/10/30 04:27:32;;;;;;;4.97;3.50;;;;;;;14.65;55.10;98792.31;4953574;28;20051;-81
2021/10/30 04:30:01;;;;;;;4.45;3.78;;;;;;;14.64;55.08;98793.28;4953416;28;20059;-80
2021/10/30 04:32:27;;;;;;;4.65;3.65;;;;;;;14.65;55.02;98792.31;4953244;29;20059;-81
2021/10/30 04:35:04;;;;;;;6.18;3.83;;;;;;;14.67;55.07;98792.19;4953582;29;20410;-81
2021/10/30 04:37:31;;;;;;;3.58;3.13;;;;;;;14.66;54.98;98780.72;4953187;29;20150;-81
2021/10/30 04:39:59;;;;;;;7.20;3.50;;;;;;;14.67;54.96;98773.63;4952789;28;20146;-80
2021/10/30 04:42:26;;;;;;;5.47;3.85;;;;;;;14.67;55.08;98763.88;4953451;29;20548;-80
2021/10/30 04:44:55;;;;;;;5.53;3.60;;;;;;;14.67;55.00;98779.78;4953069;29;20051;-81
2021/10/30 04:47:23;;;;;;;5.32;3.70;;;;;;;14.69;54.93;98771.69;4953122;28;20059;-80
2021/10/30 04:49:51;;;;;;;5.03;3.63;;;;;;;14.69;54.92;98763.75;4953371;28;20053;-81
2021/10/30 04:52:18;;;;;;;6.28;3.83;;;;;;;14.71;54.93;98785.63;4953481;28;20377;-81
2021/10/30 04:54:48;;;;;;;5.22;3.28;;;;;;;14.70;54.95;98768.06;4953277;29;20460;-81
2021/10/30 04:57:15;;;;;;;6.22;3.70;;;;;;;14.72;54.98;98759.00;4952890;29;20061;-80
2021/10/30 04:59:42;;;;;;;5.68;3.80;;;;;;;14.72;54.91;98756.34;4952772;29;20055;-81
2021/10/30 05:02:09;;;;;;;6.78;3.78;;;;;;;14.75;55.02;98755.25;4952904;28;20051;-81
2021/10/30 05:04:36;;;;;;;7.40;4.00;;;;;;;14.76;54.90;98751.63;4953277;29;20055;-80
2021/10/30 05:07:05;;;;;;;5.47;4.00;;;;;;;14.75;55.13;98754.41;4953835;28;20070;-81
2021/10/30 05:09:32;;;;;;;7.47;3.58;;;;;;;14.77;54.91;98744.53;4952904;29;20082;-81
2021/10/30 05:11:59;;;;;;;6.68;3.35;;;;;;;14.77;54.97;98741.88;4952770;28;20055;-81
2021/10/30 05:14:27;;;;;;;6.03;4.22;;;;;;;14.77;54.95;98739.25;4952640;29;20146;-80
2021/10/30 05:16:54;;;;;;;4.82;3.90;;;;;;;14.78;54.96;98743.56;4953800;28;20055;-81
2021/10/30 05:19:21;;;;;;;6.32;4.15;;;;;;;14.79;54.94;98742.56;4952459;28;20059;-81
2021/10/30 05:21:48;;;;;;;5.80;3.83;;;;;;;14.79;54.88;98735.47;4952903;29;20507;-80
2021/10/30 05:24:15;;;;;;;8.35;3.85;;;;;;;14.81;54.92;98733.50;4952524;28;20058;-81
2021/10/30 05:26:42;;;;;;;5.72;4.05;;;;;;;14.81;55.05;98732.69;4952479;28;20059;-81
2021/10/30 05:29:16;;;;;;;5.03;4.25;;;;;;;14.80;54.98;98733.69;4953312;28;20422;-81
2021/10/30 05:31:42;;;;;;;5.88;4.07;;;;;;;14.83;54.91;98738.66;4953365;28;20059;-81
2021/10/30 05:34:09;;;;;;;6.20;3.92;;;;;;;14.84;54.75;98743.00;4952358;28;20061;-81
2021/10/30 05:36:37;;;;;;;7.47;4.60;;;;;;;14.85;54.91;98742.84;4952314;29;20061;-81
2021/10/30 05:39:12;;;;;;;6.03;4.30;;;;;;;14.83;54.94;98734.22;4952234;29;20059;-81
2021/10/30 05:41:39;;;;;;;5.63;3.85;;;;;;;14.88;54.66;98739.06;4952134;29;20142;-81
2021/10/30 05:44:06;;;;;;;8.98;4.15;;;;;;;14.89;54.67;98735.47;4952070;29;20134;-81
2021/10/30 05:46:35;;;;;;;7.22;4.15;;;;;;;14.89;54.50;98730.19;4951829;28;20150;-81
2021/10/30 05:49:05;;;;;;;4.43;3.90;;;;;;;14.90;54.68;98728.34;4952200;28;20067;-80
2021/10/30 05:51:32;;;;;;;6.68;4.22;;;;;;;14.90;54.66;98726.53;4951920;28;20077;-81
2021/10/30 05:54:01;;;;;;;7.45;4.25;;;;;;;14.90;54.71;98723.03;4952605;28;20385;-81
2021/10/30 05:56:28;;;;;;;6.47;4.00;;;;;;;14.91;54.63;98722.91;4952340;29;20063;-80
2021/10/30 05:58:55;;;;;;;5.43;4.35;;;;;;;14.92;54.57;98723.75;4951688;29;20142;-81
2021/10/30 06:01:22;;;;;;;4.68;3.80;;;;;;;14.94;54.64;98727.09;4951945;29;20138;-81
2021/10/30 06:03:49;;;;;;;6.57;4.22;;;;;;;14.95;54.52;98726.13;4952205;29;20131;-82
2021/10/30 06:06:16;;;;;;;5.80;4.32;;;;;;;14.96;54.46;98725.16;4951961;28;20051;-82
2021/10/30 06:08:45;;;;;;;4.80;4.22;;;;;;;14.98;54.64;98734.63;4952062;29;20518;-82
2021/10/30 06:11:19;;;;;;;5.13;3.90;;;;;;;15.00;54.60;98723.88;4952839;29;20135;-84
2021/10/30 06:13:46;;;;;;;5.05;3.70;;;;;;;15.01;54.42;98722.91;4951220;29;20054;-84
2021/10/30 06:16:13;;;;;;;8.18;4.43;;;;;;;15.03;54.65;98705.03;4951407;29;20094;-84
2021/10/30 06:18:39;;;;;;;5.47;3.88;;;;;;;15.05;54.52;98718.16;4951639;28;20689;-86
2021/10/30 06:21:11;;;;;;;7.32;4.05;;;;;;;15.05;54.79;98712.84;4952350;28;20142;-83
2021/10/30 06:23:49;;;;;;;5.30;4.18;;;;;;;15.07;54.79;98718.84;4954025;28;20070;-83
2021/10/30 06:26:20;;;;;;;5.03;3.35;;;;;;;15.08;54.68;98717.88;4952290;28;20087;-83
2021/10/30 06:28:48;;;;;;;5.63;3.60;;;;;;;15.09;54.67;98711.59;4951581;28;20055;-83
2021/10/30 06:31:15;;;;;;;5.53;4.07;;;;;;;15.09;54.71;98711.59;4951456;29;20086;-82
2021/10/30 06:33:42;;;;;;;5.05;3.85;;;;;;;15.09;54.78;98708.94;4951030;28;20420;-83
2021/10/30 06:36:09;;;;;;;4.32;3.67;;;;;;;15.08;55.05;98707.25;4951329;28;20062;-83
2021/10/30 06:38:35;;;;;;;7.13;3.83;;;;;;;15.08;55.17;98705.47;4951260;28;20057;-83
2021/10/30 06:41:05;;;;;;;6.47;4.20;;;;;;;15.08;55.31;98707.25;4952684;28;20104;-81
2021/10/30 06:43:53;;;;;;;5.75;4.00;;;;;;;15.07;55.14;98700.31;4951463;28;20143;-81
2021/10/30 06:46:20;;;;;;;5.97;4.25;;;;;;;15.07;55.33;98692.34;4952185;29;20066;-81
2021/10/30 06:48:50;;;;;;;6.20;4.38;;;;;;;15.03;55.41;98694.44;4951046;28;20060;-81
2021/10/30 06:51:20;;;;;;;5.25;3.83;;;;;;;15.02;55.59;98691.94;4951158;29;20377;-81
2021/10/30 06:53:54;;;;;;;5.82;4.15;;;;;;;14.99;55.68;98687.75;4950830;28;20055;-82
2021/10/30 06:56:21;;;;;;;5.45;3.78;;;;;;;14.99;55.51;98690.38;4951205;29;20492;-82
2021/10/30 06:58:49;;;;;;;6.35;4.57;;;;;;;14.96;55.63;98686.22;4950633;28;20066;-82
2021/10/30 07:01:17;;;;;;;6.68;4.28;;;;;;;14.95;55.82;98689.03;4950901;29;20051;-82
2021/10/30 07:03:45;;;;;;;9.00;4.60;;;;;;;14.92;56.18;98695.44;4952591;28;20062;-82
2021/10/30 07:06:12;;;;;;;6.15;4.03;;;;;;;14.92;55.96;98687.47;4954267;29;20051;-82
2021/10/30 07:08:39;;;;;;;4.45;4.03;;;;;;;14.91;56.08;98696.41;4954543;28;20138;-82
2021/10/30 07:11:17;;;;;;;5.95;3.90;;;;;;;14.88;56.52;98707.28;4954521;29;20055;-82
2021/10/30 07:13:43;;;;;;;4.85;3.90;;;;;;;14.91;56.19;98716.78;4954779;29;20507;-82
2021/10/30 07:16:15;;;;;;;6.07;4.25;;;;;;;14.89;56.48;98719.56;4955638;28;20097;-81
2021/10/30 07:18:43;;;;;;;6.20;4.22;;;;;;;14.89;56.49;98711.63;4954711;29;20407;-81
2021/10/30 07:21:11;;;;;;;6.25;4.25;;;;;;;14.88;56.39;98717.88;4954408;29;20062;-81
2021/10/30 07:24:00;;;;;;;6.57;4.50;;;;;;;14.82;57.08;98714.00;4954674;29;20478;-81
2021/10/30 07:26:28;;;;;;;5.50;3.80;;;;;;;14.84;56.78;98709.38;4954255;29;20047;-81
2021/10/30 07:28:54;;;;;;;4.40;3.38;;;;;;;14.85;56.69;98710.25;4954351;28;20047;-81
2021/10/30 07:32:08;;;;;;;7.93;4.18;;;;;;;14.78;57.46;98696.72;4955372;28;20051;-81
2021/10/30 07:34:36;;;;;;;4.97;3.55;;;;;;;14.83;57.09;98706.88;4955528;29;20062;-81
2021/10/30 07:37:03;;;;;;;7.63;4.47;;;;;;;14.82;57.01;98697.25;4954113;28;20059;-81
2021/10/30 07:39:34;;;;;;;6.22;4.18;;;;;;;14.80;57.80;98693.94;4954089;29;20065;-81
2021/10/30 07:42:02;;;;;;;6.03;3.75;;;;;;;14.79;57.57;98701.03;4954117;29;20059;-81
2021/10/30 07:44:29;;;;;;;5.10;4.57;;;;;;;14.78;57.70;98695.88;4954063;29;20122;-81
2021/10/30 07:46:56;;;;;;;6.72;4.28;;;;;;;14.77;57.68;98695.03;4954174;28;20456;-81
2021/10/30 07:49:26;;;;;;;5.40;4.15;;;;;;;14.73;58.14;98689.16;4953718;28;20066;-82
2021/10/30 07:51:56;;;;;;;7.43;4.35;;;;;;;14.72;58.39;98690.13;4954999;28;20063;-82
2021/10/30 07:54:24;;;;;;;7.53;4.97;;;;;;;14.72;58.30;98702.53;4953982;28;20047;-82
2021/10/30 07:57:42;;;;;;;6.00;4.22;;;;;;;14.67;59.16;98708.28;4954844;28;20101;-82
2021/10/30 08:00:10;;;;;;;5.88;4.43;;;;;;;14.70;58.49;98705.31;4953858;28;20472;-82
2021/10/30 08:02:51;;;;;;;5.40;4.25;;;;;;;14.66;59.38;98703.09;4953966;28;20385;-82
2021/10/30 08:05:18;;;;;;;8.50;4.90;;;;;;;14.67;58.73;98708.28;4955103;28;20560;-82
2021/10/30 08:07:47;;;;;;;5.90;4.32;;;;;;;14.66;59.22;98711.88;4953651;29;20138;-82
2021/10/30 08:10:15;;;;;;;7.32;4.47;;;;;;;14.66;58.90;98711.88;4953794;29;20056;-82
2021/10/30 08:12:44;;;;;;;7.07;4.68;;;;;;;14.66;59.45;98719.00;4954961;28;20062;-82
2021/10/30 08:15:11;;;;;;;4.93;4.38;;;;;;;14.66;59.24;98703.94;4952879;28;20122;-82
2021/10/30 08:17:38;;;;;;;6.28;4.35;;;;;;;14.66;59.22;98708.41;4953719;29;20051;-82
2021/10/30 08:20:07;;;;;;;6.30;4.65;;;;;;;14.65;59.78;98714.69;4953261;29;20051;-82
2021/10/30 08:22:34;;;;;;;7.18;5.20;;;;;;;14.65;59.41;98706.75;4953387;29;20055;-82
2021/10/30 08:25:01;;;;;;;5.93;4.68;;;;;;;14.66;59.59;98703.09;4953401;29;20136;-82
2021/10/30 08:27:28;;;;;;;5.18;4.32;;;;;;;14.65;59.50;98696.16;4953848;29;20474;-82
2021/10/30 08:29:54;;;;;;;8.00;5.00;;;;;;;14.65;59.86;98694.31;4953115;28;20137;-82
2021/10/30 08:32:23;;;;;;;5.43;4.63;;;;;;;14.63;60.13;98693.63;4953320;29;20047;-82
2021/10/30 08:34:52;;;;;;;5.88;4.80;;;;;;;14.63;59.71;98683.03;4953131;28;20043;-82
2021/10/30 08:37:28;;;;;;;6.45;5.15;;;;;;;14.61;60.47;98690.28;4953444;29;20480;-82
2021/10/30 08:39:54;;;;;;;6.03;5.15;;;;;;;14.65;59.96;98683.72;4953336;29;20063;-82
2021/10/30 08:42:22;;;;;;;5.43;4.50;;;;;;;14.65;60.03;98674.97;4953065;29;20051;-82
2021/10/30 08:45:00;;;;;;;5.90;4.60;;;;;;;14.62;60.54;98673.44;4953165;28;20057;-82
2021/10/30 08:47:27;;;;;;;6.13;4.97;;;;;;;14.67;60.00;98670.34;4953067;28;20055;-82
2021/10/30 08:49:55;;;;;;;7.38;4.70;;;;;;;14.67;59.99;98668.53;4954329;28;20150;-82
2021/10/30 08:52:23;;;;;;;5.88;4.63;;;;;;;14.66;60.30;98671.31;4952976;29;20055;-82
2021/10/30 08:54:50;;;;;;;6.30;4.45;;;;;;;14.68;59.99;98658.75;4952890;29;20051;-83
2021/10/30 08:57:22;;;;;;;5.78;4.43;;;;;;;14.68;60.68;98650.81;4952852;28;20124;-82
2021/10/30 08:59:49;;;;;;;7.38;4.30;;;;;;;14.71;60.19;98655.84;4952692;28;20057;-83
2021/10/30 09:02:34;;;;;;;6.43;4.28;;;;;;;14.69;61.05;98653.31;4953160;28;20472;-82
2021/10/30 09:05:12;;;;;;;5.80;4.15;;;;;;;14.71;61.03;98650.53;4952848;28;20078;-82
2021/10/30 09:07:42;;;;;;;7.85;4.63;;;;;;;14.77;60.32;98650.00;4953442;28;20399;-82
2021/10/30 09:10:26;;;;;;;5.70;4.22;;;;;;;14.78;60.90;98645.53;4952607;28;20495;-82
2021/10/30 09:13:01;;;;;;;5.85;4.18;;;;;;;14.80;61.03;98641.78;4953014;29;20055;-82
2021/10/30 09:15:35;;;;;;;5.53;4.25;;;;;;;14.83;60.79;98645.94;4954040;28;20085;-82
2021/10/30 09:18:19;;;;;;;5.78;4.50;;;;;;;14.84;60.92;98645.00;4952895;29;20052;-82
2021/10/30 09:20:48;;;;;;;4.53;3.72;;;;;;;14.89;60.35;98624.19;4952833;28;20130;-82
2021/10/30 09:23:16;;;;;;;6.93;4.15;;;;;;;14.91;60.58;98626.72;4952589;28;20108;-82
2021/10/30 09:26:00;;;;;;;6.13;3.35;;;;;;;14.89;61.02;98628.66;4952421;28;20055;-82
2021/10/30 09:28:50;;;;;;;4.13;3.20;;;;;;;14.91;60.89;98621.41;4951969;29;20062;-82
2021/10/30 09:31:18;;;;;;;5.55;3.83;;;;;;;14.98;60.45;98610.06;4952729;29;20055;-82
2021/10/30 09:34:40;;;;;;;4.32;3.47;;;;;;;14.99;60.86;98613.53;4952661;28;20499;-82
2021/10/30 09:37:18;;;;;;;8.27;3.47;;;;;;;15.04;60.62;98607.81;4959383;28;20059;-82
2021/10/30 09:39:46;;;;;;;5.95;3.17;;;;;;;15.13;60.25;98608.78;4952149;29;20051;-82
2021/10/30 09:42:29;;;;;;;;;;;;;;;15.16;59.91;98625.22;4956587;28;20052;-82
2021/10/30 09:45:22;;;;;;;4.28;2.97;;;;;;;15.21;60.07;98632.72;4952153;28;19922;-81
2021/10/30 09:48:01;;;;;;;4.65;3.38;;;;;;;15.28;59.75;98623.22;4953413;28;20138;-80
2021/10/30 09:50:32;;;;;;;6.15;3.58;;;;;;;15.29;59.72;98624.88;4952190;28;20515;-81
2021/10/30 09:53:35;;;;;;;5.45;3.72;;;;;;;15.26;60.07;98630.50;4952493;28;20617;-81
2021/10/30 09:56:10;;;;;;;5.38;3.97;;;;;;;15.33;59.88;98628.91;4952327;29;20424;-80
2021/10/30 09:58:43;;;;;;;5.03;3.72;;;;;;;15.34;60.01;98633.25;4952147;28;20410;-81
2021/10/30 10:01:15;;;;;;;4.28;3.88;;;;;;;15.36;59.79;98625.97;4952001;28;20051;-80
2021/10/30 10:03:44;;;;;;;4.32;3.60;;;;;;;15.38;59.65;98625.81;4952132;28;20051;-81
2021/10/30 10:06:14;;;;;;;5.20;3.30;;;;;;;15.41;59.13;98616.75;4952199;28;20170;-81
2021/10/30 10:08:46;;;;;;;3.47;3.05;;;;;;;15.43;58.63;98618.25;4952841;28;20101;-81
2021/10/30 10:11:16;;;;;;;4.00;3.22;;;;;;;15.47;58.46;98613.50;4951986;29;20051;-80
2021/10/30 10:13:48;;;;;;;4.68;3.05;;;;;;;15.49;57.93;98609.72;4952122;29;20051;-82
2021/10/30 10:16:20;;;;;;;;;;;;;;;15.53;58.13;98615.56;4952533;29;20468;-82
2021/10/30 10:18:51;;;;;;;4.20;2.95;;;;;;;15.60;57.42;98603.41;4951769;28;19923;-81
2021/10/30 10:21:33;;;;;;;4.13;3.17;;;;;;;15.58;56.89;98604.50;4952064;29;20399;-81
2021/10/30 10:24:13;;;;;;;3.63;3.20;;;;;;;15.62;57.10;98592.59;4951631;29;20174;-81
2021/10/30 10:26:47;;;;;;;4.68;3.00;;;;;;;15.63;56.70;98583.69;4951644;28;20519;-81
2021/10/30 10:29:34;;;;;;;6.32;3.47;;;;;;;15.62;56.76;98579.34;4951661;29;20082;-81
2021/10/30 10:32:03;;;;;;;4.25;3.05;;;;;;;15.70;56.54;98584.75;4951892;28;20055;-81
2021/10/30 10:34:39;;;;;;;3.83;3.05;;;;;;;15.69;56.62;98577.78;4951452;29;20047;-82
2021/10/30 10:37:12;;;;;;;5.25;3.17;;;;;;;15.73;56.16;98583.59;4951526;29;20066;-82
2021/10/30 10:39:46;;;;;;;3.63;3.03;;;;;;;15.76;56.71;98580.66;4951495;28;20055;-82
2021/10/30 10:42:36;;;;;;;4.50;3.33;;;;;;;15.79;55.97;98575.06;4951436;28;20134;-82
2021/10/30 10:45:07;;;;;;;4.05;2.90;;;;;;;15.84;56.10;98577.25;4951734;29;20131;-82
2021/10/30 10:47:40;;;;;;;4.18;2.90;;;;;;;15.86;56.08;98568.16;4951610;29;20051;-82
2021/10/30 10:50:35;;;;;;;5.25;2.60;;;;;;;15.87;56.37;98584.91;4951261;29;20142;-82
2021/10/30 10:53:03;;;;;;;4.07;2.60;;;;;;;15.93;56.17;98568.41;4951459;29;20399;-82
2021/10/30 10:56:07;;;;;;;3.72;2.80;;;;;;;15.91;56.02;98570.34;4951422;28;20067;-82
2021/10/30 10:59:13;;;;;;;3.88;2.45;;;;;;;15.94;55.99;98558.59;4951187;29;20051;-82
2021/10/30 11:02:01;;;;;;;3.25;2.28;;;;;;;16.01;55.55;98563.19;4951558;29;20059;-82
2021/10/30 11:04:29;;;;;;;3.80;2.47;;;;;;;16.04;55.75;98563.88;4951009;28;20070;-81
2021/10/30 11:10:39;;;;;;;4.03;2.50;;;;;;;16.08;55.72;98555.47;4952334;29;20047;-81
2021/10/30 11:13:10;;;;;;;5.70;2.70;;;;;;;16.12;55.29;98546.19;4951053;29;20499;-81
2021/10/30 11:15:56;;;;;;;4.35;2.90;;;;;;;16.11;54.88;98544.50;4952105;28;20579;-81
2021/10/30 11:21:20;;;;;;;4.88;3.10;;;;;;;16.16;55.05;98536.09;4952181;28;20121;-82
2021/10/30 11:23:54;;;;;;;4.72;3.03;;;;;;;16.19;54.79;98527.00;4950980;28;20047;-82
2021/10/30 11:26:27;;;;;;;;;;;;;;;16.20;55.18;98523.34;4951506;28;20061;-82
2021/10/30 11:29:31;;;;;;;2.72;2.30;;;;;;;16.21;54.83;98523.19;4951178;28;19928;-82
2021/10/30 11:32:04;;;;;;;3.80;3.05;;;;;;;16.23;53.89;98515.91;4952489;28;20052;-82
2021/10/30 11:34:36;;;;;;;;;;;;;;;16.24;54.95;98511.44;4951224;29;20047;-82
2021/10/30 11:37:15;;;;;;;3.65;2.75;;;;;;;16.23;53.97;98515.09;4950939;29;20396;-82
2021/10/30 11:40:06;;;;;;;3.90;2.65;;;;;;;16.25;54.66;98519.25;4951975;28;20163;-83
2021/10/30 11:42:54;;;;;;;3.97;2.90;;;;;;;16.19;53.96;98519.03;4984672;28;20505;-83
2021/10/30 11:45:22;;;;;;;4.57;2.80;;;;;;;16.21;54.03;98517.03;4960817;28;20043;-84
2021/10/30 11:47:53;;;;;;;5.72;2.75;;;;;;;16.18;53.77;98515.53;4950988;29;20498;-83
2021/10/30 11:50:20;;;;;;;3.08;2.53;;;;;;;16.18;53.96;98512.06;4952213;28;20133;-83
2021/10/30 11:52:50;;;;;;;3.40;2.78;;;;;;;16.17;53.93;98516.53;4953891;29;20055;-83
2021/10/30 11:55:21;;;;;;;4.78;2.75;;;;;;;16.15;53.67;98532.59;4953824;29;20412;-83
2021/10/30 11:58:05;;;;;;;3.15;2.60;;;;;;;16.18;53.85;98517.38;4954107;28;20055;-83